sensor_id;sensor_type;location;lat;lon;timestamp;temperature;humidity
21039;DHT22;10678;51.002;4.786;2024-02-15T00:01:41;14.20;99.90
21039;DHT22;10678;51.002;4.786;2024-02-15T00:04:07;14.20;99.90
21039;DHT22;10678;51.002;4.786;2024-02-15T00:06:33;14.20;99.90
21039;DHT22;10678;51.002;4.786;2024-02-15T00:08:59;14.10;99.90
21039;DHT22;10678;51.002;4.786;2024-02-15T00:11:24;14.10;99.90
21039;DHT22;10678;51.002;4.786;2024-02-15T00:13:50;14.10;99.90
21039;DHT22;10678;51.002;4.786;2024-02-15T00:16:16;14.10;99.90
21039;DHT22;10678;51.002;4.786;2024-02-15T00:18:41;14.20;99.90
21039;DHT22;10678;51.002;4.786;2024-02-15T00:21:07;14.30;99.90
21039;DHT22;10678;51.002;4.786;2024-02-15T00:23:33;14.30;99.90
21039;DHT22;10678;51.002;4.786;2024-02-15T00:25:59;14.20;99.90
21039;DHT22;10678;51.002;4.786;2024-02-15T00:28:24;14.10;99.90
21039;DHT22;10678;51.002;4.786;2024-02-15T00:30:52;14.20;99.90
21039;DHT22;10678;51.002;4.786;2024-02-15T00:33:18;14.20;99.90
21039;DHT22;10678;51.002;4.786;2024-02-15T00:35:43;14.10;99.90
21039;DHT22;10678;51.002;4.786;2024-02-15T00:38:09;14.20;99.90
21039;DHT22;10678;51.002;4.786;2024-02-15T00:40:34;14.30;99.90
21039;DHT22;10678;51.002;4.786;2024-02-15T00:43:00;14.20;99.90
21039;DHT22;10678;51.002;4.786;2024-02-15T00:45:26;14.30;99.90
21039;DHT22;10678;51.002;4.786;2024-02-15T00:47:51;14.30;99.90
21039;DHT22;10678;51.002;4.786;2024-02-15T00:50:18;14.30;99.90
21039;DHT22;10678;51.002;4.786;2024-02-15T00:52:44;14.20;99.90
21039;DHT22;10678;51.002;4.786;2024-02-15T00:55:10;14.20;99.90
21039;DHT22;10678;51.002;4.786;2024-02-15T00:57:36;14.20;99.90
21039;DHT22;10678;51.002;4.786;2024-02-15T01:00:01;14.20;99.90
21039;DHT22;10678;51.002;4.786;2024-02-15T01:02:29;14.20;99.90
21039;DHT22;10678;51.002;4.786;2024-02-15T01:04:54;14.10;99.90
21039;DHT22;10678;51.002;4.786;2024-02-15T01:07:22;14.10;99.90
21039;DHT22;10678;51.002;4.786;2024-02-15T01:09:52;14.20;99.90
21039;DHT22;10678;51.002;4.786;2024-02-15T01:12:18;14.20;99.90
21039;DHT22;10678;51.002;4.786;2024-02-15T01:14:44;14.10;99.90
21039;DHT22;10678;51.002;4.786;2024-02-15T01:17:10;14.30;99.90
21039;DHT22;10678;51.002;4.786;2024-02-15T01:19:35;14.30;99.90
21039;DHT22;10678;51.002;4.786;2024-02-15T01:22:01;14.30;99.90
21039;DHT22;10678;51.002;4.786;2024-02-15T01:24:28;14.40;99.90
21039;DHT22;10678;51.002;4.786;2024-02-15T01:26:53;14.30;99.90
21039;DHT22;10678;51.002;4.786;2024-02-15T01:29:19;14.30;99.90
21039;DHT22;10678;51.002;4.786;2024-02-15T01:31:46;14.40;99.90
21039;DHT22;10678;51.002;4.786;2024-02-15T01:34:11;14.30;99.90
21039;DHT22;10678;51.002;4.786;2024-02-15T01:36:37;14.40;99.90
21039;DHT22;10678;51.002;4.786;2024-02-15T01:39:02;14.40;99.90
21039;DHT22;10678;51.002;4.786;2024-02-15T01:41:28;14.30;99.90
21039;DHT22;10678;51.002;4.786;2024-02-15T01:43:53;14.40;99.90
21039;DHT22;10678;51.002;4.786;2024-02-15T01:46:20;14.30;99.90
21039;DHT22;10678;51.002;4.786;2024-02-15T01:48:46;14.30;99.90
21039;DHT22;10678;51.002;4.786;2024-02-15T01:51:13;14.30;99.90
21039;DHT22;10678;51.002;4.786;2024-02-15T01:53:42;14.30;99.90
21039;DHT22;10678;51.002;4.786;2024-02-15T01:56:08;14.20;99.90
21039;DHT22;10678;51.002;4.786;2024-02-15T01:58:35;14.20;99.90
21039;DHT22;10678;51.002;4.786;2024-02-15T02:01:02;14.20;99.90
21039;DHT22;10678;51.002;4.786;2024-02-15T02:03:28;14.20;99.90
21039;DHT22;10678;51.002;4.786;2024-02-15T02:05:53;14.20;99.90
21039;DHT22;10678;51.002;4.786;2024-02-15T02:08:19;14.10;99.90
21039;DHT22;10678;51.002;4.786;2024-02-15T02:10:45;14.00;99.90
21039;DHT22;10678;51.002;4.786;2024-02-15T02:13:11;14.00;99.90
21039;DHT22;10678;51.002;4.786;2024-02-15T02:15:37;14.00;99.90
21039;DHT22;10678;51.002;4.786;2024-02-15T02:18:04;14.10;99.90
21039;DHT22;10678;51.002;4.786;2024-02-15T02:20:34;13.90;99.90
21039;DHT22;10678;51.002;4.786;2024-02-15T02:23:25;14.00;99.90
21039;DHT22;10678;51.002;4.786;2024-02-15T02:25:51;14.00;99.90
21039;DHT22;10678;51.002;4.786;2024-02-15T02:28:17;14.00;99.90
21039;DHT22;10678;51.002;4.786;2024-02-15T02:30:43;14.10;99.90
21039;DHT22;10678;51.002;4.786;2024-02-15T02:33:11;14.30;99.90
21039;DHT22;10678;51.002;4.786;2024-02-15T02:35:44;14.20;99.90
21039;DHT22;10678;51.002;4.786;2024-02-15T02:38:10;14.20;99.90
21039;DHT22;10678;51.002;4.786;2024-02-15T02:40:35;14.20;99.90
21039;DHT22;10678;51.002;4.786;2024-02-15T02:43:01;14.10;99.90
21039;DHT22;10678;51.002;4.786;2024-02-15T02:45:27;14.20;99.90
21039;DHT22;10678;51.002;4.786;2024-02-15T02:47:53;14.20;99.90
21039;DHT22;10678;51.002;4.786;2024-02-15T02:50:23;14.30;99.90
21039;DHT22;10678;51.002;4.786;2024-02-15T02:52:49;14.20;99.90
21039;DHT22;10678;51.002;4.786;2024-02-15T02:55:15;14.20;99.90
21039;DHT22;10678;51.002;4.786;2024-02-15T02:57:41;14.20;99.90
21039;DHT22;10678;51.002;4.786;2024-02-15T03:00:12;14.20;99.90
21039;DHT22;10678;51.002;4.786;2024-02-15T03:02:39;14.30;99.90
21039;DHT22;10678;51.002;4.786;2024-02-15T03:05:05;14.30;99.90
21039;DHT22;10678;51.002;4.786;2024-02-15T03:07:35;14.40;99.90
21039;DHT22;10678;51.002;4.786;2024-02-15T03:10:01;14.30;99.90
21039;DHT22;10678;51.002;4.786;2024-02-15T03:12:30;14.30;99.90
21039;DHT22;10678;51.002;4.786;2024-02-15T03:14:55;14.50;99.90
21039;DHT22;10678;51.002;4.786;2024-02-15T03:17:23;14.40;99.90
21039;DHT22;10678;51.002;4.786;2024-02-15T03:19:48;14.40;99.90
21039;DHT22;10678;51.002;4.786;2024-02-15T03:22:14;14.30;99.90
21039;DHT22;10678;51.002;4.786;2024-02-15T03:24:40;14.10;99.90
21039;DHT22;10678;51.002;4.786;2024-02-15T03:27:06;14.20;99.90
21039;DHT22;10678;51.002;4.786;2024-02-15T03:29:32;14.20;99.90
21039;DHT22;10678;51.002;4.786;2024-02-15T03:32:01;14.20;99.90
21039;DHT22;10678;51.002;4.786;2024-02-15T03:34:28;14.10;99.90
21039;DHT22;10678;51.002;4.786;2024-02-15T03:36:53;14.10;99.90
21039;DHT22;10678;51.002;4.786;2024-02-15T03:39:20;14.00;99.90
21039;DHT22;10678;51.002;4.786;2024-02-15T03:41:45;14.00;99.90
21039;DHT22;10678;51.002;4.786;2024-02-15T03:44:12;14.00;99.90
21039;DHT22;10678;51.002;4.786;2024-02-15T03:46:37;14.00;99.90
21039;DHT22;10678;51.002;4.786;2024-02-15T03:49:03;14.00;99.90
21039;DHT22;10678;51.002;4.786;2024-02-15T03:51:28;13.90;99.90
21039;DHT22;10678;51.002;4.786;2024-02-15T03:53:54;14.00;99.90
21039;DHT22;10678;51.002;4.786;2024-02-15T03:56:20;14.00;99.90
21039;DHT22;10678;51.002;4.786;2024-02-15T03:58:48;14.10;99.90
21039;DHT22;10678;51.002;4.786;2024-02-15T04:01:16;14.10;99.90
21039;DHT22;10678;51.002;4.786;2024-02-15T04:03:41;14.10;99.90
21039;DHT22;10678;51.002;4.786;2024-02-15T04:06:07;14.10;99.90
21039;DHT22;10678;51.002;4.786;2024-02-15T04:08:33;14.20;99.90
21039;DHT22;10678;51.002;4.786;2024-02-15T04:10:59;14.10;99.90
21039;DHT22;10678;51.002;4.786;2024-02-15T04:13:25;14.10;99.90
21039;DHT22;10678;51.002;4.786;2024-02-15T04:15:50;14.00;99.90
21039;DHT22;10678;51.002;4.786;2024-02-15T04:18:18;14.00;99.90
21039;DHT22;10678;51.002;4.786;2024-02-15T04:20:44;13.90;99.90
21039;DHT22;10678;51.002;4.786;2024-02-15T04:23:12;14.00;99.90
21039;DHT22;10678;51.002;4.786;2024-02-15T04:25:38;14.00;99.90
21039;DHT22;10678;51.002;4.786;2024-02-15T04:28:04;13.90;99.90
21039;DHT22;10678;51.002;4.786;2024-02-15T04:30:30;13.90;99.90
21039;DHT22;10678;51.002;4.786;2024-02-15T04:32:56;13.90;99.90
21039;DHT22;10678;51.002;4.786;2024-02-15T04:35:22;13.90;99.90
21039;DHT22;10678;51.002;4.786;2024-02-15T04:37:47;13.90;99.90
21039;DHT22;10678;51.002;4.786;2024-02-15T04:40:14;13.90;99.90
21039;DHT22;10678;51.002;4.786;2024-02-15T04:42:40;14.00;99.90
21039;DHT22;10678;51.002;4.786;2024-02-15T04:45:07;14.00;99.90
21039;DHT22;10678;51.002;4.786;2024-02-15T04:47:35;14.00;99.90
21039;DHT22;10678;51.002;4.786;2024-02-15T04:50:00;14.00;99.90
21039;DHT22;10678;51.002;4.786;2024-02-15T04:52:28;14.00;99.90
21039;DHT22;10678;51.002;4.786;2024-02-15T04:54:53;14.00;99.90
21039;DHT22;10678;51.002;4.786;2024-02-15T04:57:24;13.90;99.90
21039;DHT22;10678;51.002;4.786;2024-02-15T04:59:51;13.90;99.90
21039;DHT22;10678;51.002;4.786;2024-02-15T05:02:16;13.90;99.90
21039;DHT22;10678;51.002;4.786;2024-02-15T05:04:42;14.00;99.90
21039;DHT22;10678;51.002;4.786;2024-02-15T05:07:11;14.10;99.90
21039;DHT22;10678;51.002;4.786;2024-02-15T05:09:36;14.10;99.90
21039;DHT22;10678;51.002;4.786;2024-02-15T05:12:02;14.10;99.90
21039;DHT22;10678;51.002;4.786;2024-02-15T05:14:28;14.00;99.90
21039;DHT22;10678;51.002;4.786;2024-02-15T05:16:54;13.90;99.90
21039;DHT22;10678;51.002;4.786;2024-02-15T05:19:19;14.00;99.90
21039;DHT22;10678;51.002;4.786;2024-02-15T05:21:45;14.00;99.90
21039;DHT22;10678;51.002;4.786;2024-02-15T05:24:17;13.90;99.90
21039;DHT22;10678;51.002;4.786;2024-02-15T05:26:45;13.90;99.90
21039;DHT22;10678;51.002;4.786;2024-02-15T05:29:15;13.80;99.90
21039;DHT22;10678;51.002;4.786;2024-02-15T05:31:42;13.80;99.90
21039;DHT22;10678;51.002;4.786;2024-02-15T05:34:07;13.90;99.90
21039;DHT22;10678;51.002;4.786;2024-02-15T05:36:35;13.80;99.90
21039;DHT22;10678;51.002;4.786;2024-02-15T05:39:01;13.80;99.90
21039;DHT22;10678;51.002;4.786;2024-02-15T05:41:28;13.90;99.90
21039;DHT22;10678;51.002;4.786;2024-02-15T05:43:53;13.90;99.90
21039;DHT22;10678;51.002;4.786;2024-02-15T05:46:19;14.00;99.90
21039;DHT22;10678;51.002;4.786;2024-02-15T05:48:48;13.90;99.90
21039;DHT22;10678;51.002;4.786;2024-02-15T05:51:14;13.90;99.90
21039;DHT22;10678;51.002;4.786;2024-02-15T05:53:41;13.90;99.90
21039;DHT22;10678;51.002;4.786;2024-02-15T05:56:07;13.90;99.90
21039;DHT22;10678;51.002;4.786;2024-02-15T05:58:33;13.90;99.90
21039;DHT22;10678;51.002;4.786;2024-02-15T06:01:00;13.80;99.90
21039;DHT22;10678;51.002;4.786;2024-02-15T06:03:30;13.80;99.90
21039;DHT22;10678;51.002;4.786;2024-02-15T06:05:58;13.80;99.90
21039;DHT22;10678;51.002;4.786;2024-02-15T06:08:30;13.80;99.90
21039;DHT22;10678;51.002;4.786;2024-02-15T06:10:55;13.70;99.90
21039;DHT22;10678;51.002;4.786;2024-02-15T06:13:22;13.70;99.90
21039;DHT22;10678;51.002;4.786;2024-02-15T06:15:48;13.80;99.90
21039;DHT22;10678;51.002;4.786;2024-02-15T06:18:23;13.80;99.90
21039;DHT22;10678;51.002;4.786;2024-02-15T06:20:53;13.70;99.90
21039;DHT22;10678;51.002;4.786;2024-02-15T06:23:19;13.70;99.90
21039;DHT22;10678;51.002;4.786;2024-02-15T06:25:50;13.70;99.90
21039;DHT22;10678;51.002;4.786;2024-02-15T06:28:16;13.70;99.90
21039;DHT22;10678;51.002;4.786;2024-02-15T06:31:05;13.70;99.90
21039;DHT22;10678;51.002;4.786;2024-02-15T06:33:49;13.70;99.90
21039;DHT22;10678;51.002;4.786;2024-02-15T06:36:33;13.60;99.90
21039;DHT22;10678;51.002;4.786;2024-02-15T06:39:17;13.70;99.90
21039;DHT22;10678;51.002;4.786;2024-02-15T06:42:02;13.60;99.90
21039;DHT22;10678;51.002;4.786;2024-02-15T06:44:28;13.70;99.90
21039;DHT22;10678;51.002;4.786;2024-02-15T06:46:53;13.70;99.90
21039;DHT22;10678;51.002;4.786;2024-02-15T06:49:19;13.70;99.90
21039;DHT22;10678;51.002;4.786;2024-02-15T06:51:48;13.60;99.90
21039;DHT22;10678;51.002;4.786;2024-02-15T06:54:13;13.60;99.90
21039;DHT22;10678;51.002;4.786;2024-02-15T06:56:39;13.60;99.90
21039;DHT22;10678;51.002;4.786;2024-02-15T06:59:06;13.60;99.90
21039;DHT22;10678;51.002;4.786;2024-02-15T07:01:32;13.70;99.90
21039;DHT22;10678;51.002;4.786;2024-02-15T07:03:59;13.60;99.90
21039;DHT22;10678;51.002;4.786;2024-02-15T07:06:25;13.70;99.90
21039;DHT22;10678;51.002;4.786;2024-02-15T07:08:52;13.80;99.90
21039;DHT22;10678;51.002;4.786;2024-02-15T07:11:20;13.70;99.90
21039;DHT22;10678;51.002;4.786;2024-02-15T07:13:47;13.70;99.90
21039;DHT22;10678;51.002;4.786;2024-02-15T07:16:13;13.70;99.90
21039;DHT22;10678;51.002;4.786;2024-02-15T07:18:40;13.60;99.90
21039;DHT22;10678;51.002;4.786;2024-02-15T07:21:06;13.50;99.90
21039;DHT22;10678;51.002;4.786;2024-02-15T07:23:39;13.50;99.90
21039;DHT22;10678;51.002;4.786;2024-02-15T07:26:07;13.50;99.90
21039;DHT22;10678;51.002;4.786;2024-02-15T07:28:33;13.50;99.90
21039;DHT22;10678;51.002;4.786;2024-02-15T07:30:59;13.40;99.90
21039;DHT22;10678;51.002;4.786;2024-02-15T07:33:28;13.50;99.90
21039;DHT22;10678;51.002;4.786;2024-02-15T07:35:54;13.50;99.90
21039;DHT22;10678;51.002;4.786;2024-02-15T07:38:20;13.50;99.90
21039;DHT22;10678;51.002;4.786;2024-02-15T07:40:48;13.50;99.90
21039;DHT22;10678;51.002;4.786;2024-02-15T07:43:14;13.50;99.90
21039;DHT22;10678;51.002;4.786;2024-02-15T07:45:40;13.60;99.90
21039;DHT22;10678;51.002;4.786;2024-02-15T07:48:06;13.70;99.90
21039;DHT22;10678;51.002;4.786;2024-02-15T07:50:32;13.70;99.90
21039;DHT22;10678;51.002;4.786;2024-02-15T07:52:57;13.80;99.90
21039;DHT22;10678;51.002;4.786;2024-02-15T07:55:24;13.80;99.90
21039;DHT22;10678;51.002;4.786;2024-02-15T07:57:50;13.80;99.90
21039;DHT22;10678;51.002;4.786;2024-02-15T08:00:17;13.90;99.90
21039;DHT22;10678;51.002;4.786;2024-02-15T08:02:43;13.90;99.90
21039;DHT22;10678;51.002;4.786;2024-02-15T08:05:12;14.00;99.90
21039;DHT22;10678;51.002;4.786;2024-02-15T08:07:44;14.00;99.90
21039;DHT22;10678;51.002;4.786;2024-02-15T08:10:10;14.10;99.90
21039;DHT22;10678;51.002;4.786;2024-02-15T08:12:46;14.10;99.90
21039;DHT22;10678;51.002;4.786;2024-02-15T08:15:12;14.10;99.90
21039;DHT22;10678;51.002;4.786;2024-02-15T08:20:14;14.20;99.90
21039;DHT22;10678;51.002;4.786;2024-02-15T08:22:41;14.20;99.90
21039;DHT22;10678;51.002;4.786;2024-02-15T08:25:11;14.40;99.90
21039;DHT22;10678;51.002;4.786;2024-02-15T08:27:39;14.50;99.90
21039;DHT22;10678;51.002;4.786;2024-02-15T08:30:10;14.50;99.90
21039;DHT22;10678;51.002;4.786;2024-02-15T08:32:40;14.50;99.90
21039;DHT22;10678;51.002;4.786;2024-02-15T08:35:07;14.50;99.90
21039;DHT22;10678;51.002;4.786;2024-02-15T08:37:37;14.50;99.90
21039;DHT22;10678;51.002;4.786;2024-02-15T08:40:05;14.70;99.90
21039;DHT22;10678;51.002;4.786;2024-02-15T08:42:40;14.80;99.90
21039;DHT22;10678;51.002;4.786;2024-02-15T08:45:07;14.80;99.90
21039;DHT22;10678;51.002;4.786;2024-02-15T08:47:40;14.90;99.90
21039;DHT22;10678;51.002;4.786;2024-02-15T08:50:07;15.00;99.90
21039;DHT22;10678;51.002;4.786;2024-02-15T08:52:38;15.20;99.90
21039;DHT22;10678;51.002;4.786;2024-02-15T08:55:13;15.30;99.90
21039;DHT22;10678;51.002;4.786;2024-02-15T08:57:42;15.50;99.90
21039;DHT22;10678;51.002;4.786;2024-02-15T09:00:10;15.70;99.90
21039;DHT22;10678;51.002;4.786;2024-02-15T09:02:45;15.80;99.90
21039;DHT22;10678;51.002;4.786;2024-02-15T09:05:11;15.70;99.90
21039;DHT22;10678;51.002;4.786;2024-02-15T09:07:44;15.70;99.90
21039;DHT22;10678;51.002;4.786;2024-02-15T09:10:16;15.60;99.90
21039;DHT22;10678;51.002;4.786;2024-02-15T09:12:48;15.80;99.90
21039;DHT22;10678;51.002;4.786;2024-02-15T09:15:14;15.80;99.90
21039;DHT22;10678;51.002;4.786;2024-02-15T09:17:40;15.90;99.90
21039;DHT22;10678;51.002;4.786;2024-02-15T09:22:33;16.00;99.90
21039;DHT22;10678;51.002;4.786;2024-02-15T09:24:58;16.10;99.90
21039;DHT22;10678;51.002;4.786;2024-02-15T09:27:24;16.10;99.90
21039;DHT22;10678;51.002;4.786;2024-02-15T09:29:50;16.40;99.90
21039;DHT22;10678;51.002;4.786;2024-02-15T09:32:15;16.60;99.90
21039;DHT22;10678;51.002;4.786;2024-02-15T09:34:41;16.70;99.90
21039;DHT22;10678;51.002;4.786;2024-02-15T09:37:07;16.80;99.90
21039;DHT22;10678;51.002;4.786;2024-02-15T09:39:33;16.90;99.90
21039;DHT22;10678;51.002;4.786;2024-02-15T09:41:58;17.00;99.90
21039;DHT22;10678;51.002;4.786;2024-02-15T09:44:27;17.00;99.90
21039;DHT22;10678;51.002;4.786;2024-02-15T09:47:06;17.00;99.90
21039;DHT22;10678;51.002;4.786;2024-02-15T09:49:38;17.10;99.90
21039;DHT22;10678;51.002;4.786;2024-02-15T09:52:08;17.20;99.90
21039;DHT22;10678;51.002;4.786;2024-02-15T09:54:40;17.40;99.90
21039;DHT22;10678;51.002;4.786;2024-02-15T09:57:09;17.50;99.90
21039;DHT22;10678;51.002;4.786;2024-02-15T09:59:36;17.60;99.90
21039;DHT22;10678;51.002;4.786;2024-02-15T10:02:02;18.00;99.90
21039;DHT22;10678;51.002;4.786;2024-02-15T10:04:28;18.30;99.90
21039;DHT22;10678;51.002;4.786;2024-02-15T10:06:54;18.60;99.90
21039;DHT22;10678;51.002;4.786;2024-02-15T10:09:38;18.90;99.90
21039;DHT22;10678;51.002;4.786;2024-02-15T10:12:05;19.20;99.90
21039;DHT22;10678;51.002;4.786;2024-02-15T10:14:48;19.10;99.90
21039;DHT22;10678;51.002;4.786;2024-02-15T10:17:18;19.20;99.90
21039;DHT22;10678;51.002;4.786;2024-02-15T10:19:44;19.40;99.90
21039;DHT22;10678;51.002;4.786;2024-02-15T10:22:12;19.40;99.90
21039;DHT22;10678;51.002;4.786;2024-02-15T10:24:40;19.50;99.90
21039;DHT22;10678;51.002;4.786;2024-02-15T10:27:06;19.70;99.90
21039;DHT22;10678;51.002;4.786;2024-02-15T10:29:33;19.70;99.90
21039;DHT22;10678;51.002;4.786;2024-02-15T10:32:00;19.80;99.90
21039;DHT22;10678;51.002;4.786;2024-02-15T10:34:27;19.80;99.90
21039;DHT22;10678;51.002;4.786;2024-02-15T10:39:36;19.50;99.90
21039;DHT22;10678;51.002;4.786;2024-02-15T10:42:03;19.40;99.90
21039;DHT22;10678;51.002;4.786;2024-02-15T10:44:31;19.20;99.90
21039;DHT22;10678;51.002;4.786;2024-02-15T10:46:59;19.00;99.90
21039;DHT22;10678;51.002;4.786;2024-02-15T10:49:31;18.80;99.90
21039;DHT22;10678;51.002;4.786;2024-02-15T10:51:58;18.70;99.90
21039;DHT22;10678;51.002;4.786;2024-02-15T10:57:04;18.60;99.90
21039;DHT22;10678;51.002;4.786;2024-02-15T10:59:32;18.50;99.90
21039;DHT22;10678;51.002;4.786;2024-02-15T11:02:00;18.60;99.90
21039;DHT22;10678;51.002;4.786;2024-02-15T11:04:31;18.70;99.90
21039;DHT22;10678;51.002;4.786;2024-02-15T11:07:00;18.80;99.90
21039;DHT22;10678;51.002;4.786;2024-02-15T11:09:27;19.00;99.90
21039;DHT22;10678;51.002;4.786;2024-02-15T11:11:55;19.30;99.90
21039;DHT22;10678;51.002;4.786;2024-02-15T11:14:27;19.70;99.90
21039;DHT22;10678;51.002;4.786;2024-02-15T11:16:58;20.00;99.90
21039;DHT22;10678;51.002;4.786;2024-02-15T11:22:14;21.70;99.90
21039;DHT22;10678;51.002;4.786;2024-02-15T11:24:48;23.00;99.90
21039;DHT22;10678;51.002;4.786;2024-02-15T11:27:25;23.40;99.90
21039;DHT22;10678;51.002;4.786;2024-02-15T11:35:08;22.60;99.90
21039;DHT22;10678;51.002;4.786;2024-02-15T11:42:53;22.40;99.90
21039;DHT22;10678;51.002;4.786;2024-02-15T11:45:19;22.30;99.90
21039;DHT22;10678;51.002;4.786;2024-02-15T11:47:50;22.20;99.90
21039;DHT22;10678;51.002;4.786;2024-02-15T11:50:17;22.10;99.90
21039;DHT22;10678;51.002;4.786;2024-02-15T11:53:02;21.80;99.90
21039;DHT22;10678;51.002;4.786;2024-02-15T11:55:31;21.60;99.90
21039;DHT22;10678;51.002;4.786;2024-02-15T11:58:02;21.50;99.90
21039;DHT22;10678;51.002;4.786;2024-02-15T12:00:42;21.30;99.90
21039;DHT22;10678;51.002;4.786;2024-02-15T12:03:27;21.10;99.90
21039;DHT22;10678;51.002;4.786;2024-02-15T12:06:11;21.20;99.90
21039;DHT22;10678;51.002;4.786;2024-02-15T12:11:59;21.40;99.90
21039;DHT22;10678;51.002;4.786;2024-02-15T12:14:43;21.20;99.90
21039;DHT22;10678;51.002;4.786;2024-02-15T12:17:27;21.20;99.90
21039;DHT22;10678;51.002;4.786;2024-02-15T12:20:11;21.10;99.90
21039;DHT22;10678;51.002;4.786;2024-02-15T12:22:47;20.80;99.90
21039;DHT22;10678;51.002;4.786;2024-02-15T12:25:15;20.80;99.90
21039;DHT22;10678;51.002;4.786;2024-02-15T12:27:42;20.90;99.90
21039;DHT22;10678;51.002;4.786;2024-02-15T12:30:15;21.50;99.90
21039;DHT22;10678;51.002;4.786;2024-02-15T12:32:45;21.60;99.90
21039;DHT22;10678;51.002;4.786;2024-02-15T12:35:17;21.50;99.90
21039;DHT22;10678;51.002;4.786;2024-02-15T12:37:48;21.80;99.90
21039;DHT22;10678;51.002;4.786;2024-02-15T12:40:20;22.00;99.90
21039;DHT22;10678;51.002;4.786;2024-02-15T12:42:47;22.10;99.90
21039;DHT22;10678;51.002;4.786;2024-02-15T12:45:20;21.60;99.90
21039;DHT22;10678;51.002;4.786;2024-02-15T12:47:50;21.30;99.90
21039;DHT22;10678;51.002;4.786;2024-02-15T12:50:17;21.00;99.90
21039;DHT22;10678;51.002;4.786;2024-02-15T12:52:45;20.60;99.90
21039;DHT22;10678;51.002;4.786;2024-02-15T12:55:17;20.20;99.90
21039;DHT22;10678;51.002;4.786;2024-02-15T12:57:45;19.80;99.90
21039;DHT22;10678;51.002;4.786;2024-02-15T13:00:12;19.60;99.90
21039;DHT22;10678;51.002;4.786;2024-02-15T13:05:52;19.30;99.90
21039;DHT22;10678;51.002;4.786;2024-02-15T13:08:18;19.20;99.90
21039;DHT22;10678;51.002;4.786;2024-02-15T13:10:45;19.30;99.90
21039;DHT22;10678;51.002;4.786;2024-02-15T13:13:12;19.40;99.90
21039;DHT22;10678;51.002;4.786;2024-02-15T13:15:39;19.50;99.90
21039;DHT22;10678;51.002;4.786;2024-02-15T13:18:06;19.70;99.90
21039;DHT22;10678;51.002;4.786;2024-02-15T13:20:34;19.90;99.90
21039;DHT22;10678;51.002;4.786;2024-02-15T13:23:04;20.30;99.90
21039;DHT22;10678;51.002;4.786;2024-02-15T13:25:48;20.50;99.90
21039;DHT22;10678;51.002;4.786;2024-02-15T13:28:14;20.90;99.90
21039;DHT22;10678;51.002;4.786;2024-02-15T13:30:40;20.90;99.90
21039;DHT22;10678;51.002;4.786;2024-02-15T13:33:07;20.80;99.90
21039;DHT22;10678;51.002;4.786;2024-02-15T13:35:33;20.70;99.90
21039;DHT22;10678;51.002;4.786;2024-02-15T13:37:59;20.40;99.90
21039;DHT22;10678;51.002;4.786;2024-02-15T13:40:29;20.00;99.90
21039;DHT22;10678;51.002;4.786;2024-02-15T13:43:00;20.10;99.90
21039;DHT22;10678;51.002;4.786;2024-02-15T13:45:39;20.20;99.90
21039;DHT22;10678;51.002;4.786;2024-02-15T13:48:05;20.30;99.90
21039;DHT22;10678;51.002;4.786;2024-02-15T13:50:51;20.40;99.90
21039;DHT22;10678;51.002;4.786;2024-02-15T13:53:18;20.30;99.90
21039;DHT22;10678;51.002;4.786;2024-02-15T13:55:44;20.30;99.90
21039;DHT22;10678;51.002;4.786;2024-02-15T13:58:11;20.30;99.90
21039;DHT22;10678;51.002;4.786;2024-02-15T14:00:37;20.10;99.90
21039;DHT22;10678;51.002;4.786;2024-02-15T14:03:05;20.30;99.90
21039;DHT22;10678;51.002;4.786;2024-02-15T14:05:31;20.30;99.90
21039;DHT22;10678;51.002;4.786;2024-02-15T14:08:03;20.60;99.90
21039;DHT22;10678;51.002;4.786;2024-02-15T14:10:30;20.60;99.90
21039;DHT22;10678;51.002;4.786;2024-02-15T14:12:57;20.60;99.90
21039;DHT22;10678;51.002;4.786;2024-02-15T14:18:12;20.90;99.90
21039;DHT22;10678;51.002;4.786;2024-02-15T14:20:44;20.70;99.90
21039;DHT22;10678;51.002;4.786;2024-02-15T14:23:12;20.60;99.90
21039;DHT22;10678;51.002;4.786;2024-02-15T14:25:59;20.30;99.90
21039;DHT22;10678;51.002;4.786;2024-02-15T14:28:26;19.90;99.90
21039;DHT22;10678;51.002;4.786;2024-02-15T14:30:52;19.60;99.90
21039;DHT22;10678;51.002;4.786;2024-02-15T14:33:36;19.40;99.90
21039;DHT22;10678;51.002;4.786;2024-02-15T14:36:03;19.40;99.90
21039;DHT22;10678;51.002;4.786;2024-02-15T14:38:29;19.40;99.90
21039;DHT22;10678;51.002;4.786;2024-02-15T14:40:54;19.30;99.90
21039;DHT22;10678;51.002;4.786;2024-02-15T14:43:25;19.10;99.90
21039;DHT22;10678;51.002;4.786;2024-02-15T14:45:52;19.00;99.90
21039;DHT22;10678;51.002;4.786;2024-02-15T14:48:21;18.90;99.90
21039;DHT22;10678;51.002;4.786;2024-02-15T14:50:49;18.70;99.90
21039;DHT22;10678;51.002;4.786;2024-02-15T14:53:16;18.70;99.90
21039;DHT22;10678;51.002;4.786;2024-02-15T14:55:43;18.90;99.90
21039;DHT22;10678;51.002;4.786;2024-02-15T15:00:56;18.90;99.90
21039;DHT22;10678;51.002;4.786;2024-02-15T15:03:23;18.70;99.90
21039;DHT22;10678;51.002;4.786;2024-02-15T15:05:48;18.50;99.90
21039;DHT22;10678;51.002;4.786;2024-02-15T15:08:33;18.40;99.90
21039;DHT22;10678;51.002;4.786;2024-02-15T15:11:17;18.40;99.90
21039;DHT22;10678;51.002;4.786;2024-02-15T15:14:01;18.30;99.90
21039;DHT22;10678;51.002;4.786;2024-02-15T15:16:29;18.20;99.90
21039;DHT22;10678;51.002;4.786;2024-02-15T15:18:56;18.20;99.90
21039;DHT22;10678;51.002;4.786;2024-02-15T15:21:21;18.10;99.90
21039;DHT22;10678;51.002;4.786;2024-02-15T15:23:53;18.10;99.90
21039;DHT22;10678;51.002;4.786;2024-02-15T15:26:20;18.00;99.90
21039;DHT22;10678;51.002;4.786;2024-02-15T15:31:30;17.80;99.90
21039;DHT22;10678;51.002;4.786;2024-02-15T15:33:56;17.80;99.90
21039;DHT22;10678;51.002;4.786;2024-02-15T15:36:22;17.70;99.90
21039;DHT22;10678;51.002;4.786;2024-02-15T15:38:47;17.60;99.90
21039;DHT22;10678;51.002;4.786;2024-02-15T15:41:13;17.50;99.90
21039;DHT22;10678;51.002;4.786;2024-02-15T15:43:39;17.50;99.90
21039;DHT22;10678;51.002;4.786;2024-02-15T15:46:05;17.40;99.90
21039;DHT22;10678;51.002;4.786;2024-02-15T15:48:30;17.40;99.90
21039;DHT22;10678;51.002;4.786;2024-02-15T15:50:57;17.30;99.90
21039;DHT22;10678;51.002;4.786;2024-02-15T15:53:24;17.30;99.90
21039;DHT22;10678;51.002;4.786;2024-02-15T15:55:50;17.30;99.90
21039;DHT22;10678;51.002;4.786;2024-02-15T15:58:15;17.30;99.90
21039;DHT22;10678;51.002;4.786;2024-02-15T16:00:41;17.30;99.90
21039;DHT22;10678;51.002;4.786;2024-02-15T16:03:07;17.20;99.90
21039;DHT22;10678;51.002;4.786;2024-02-15T16:05:52;17.10;99.90
21039;DHT22;10678;51.002;4.786;2024-02-15T16:08:18;16.90;99.90
21039;DHT22;10678;51.002;4.786;2024-02-15T16:10:43;16.80;99.90
21039;DHT22;10678;51.002;4.786;2024-02-15T16:13:11;16.70;99.90
21039;DHT22;10678;51.002;4.786;2024-02-15T16:15:37;16.60;99.90